createdAt,value
2023-04-20T00:01:15.481Z,5.10
2023-04-20T00:03:43.392Z,3.50
2023-04-20T00:06:11.579Z,3.03
2023-04-20T00:08:39.400Z,2.90
2023-04-20T00:11:07.326Z,1.47
2023-04-20T00:13:35.278Z,3.13
2023-04-20T00:16:03.072Z,2.47
2023-04-20T00:18:32.401Z,3.97
2023-04-20T00:21:00.207Z,3.27
2023-04-20T00:23:28.025Z,4.43
2023-04-20T00:25:55.876Z,2.97
2023-04-20T00:28:23.738Z,1.90
2023-04-20T00:30:51.602Z,4.90
2023-04-20T00:33:19.509Z,2.83
2023-04-20T00:35:48.770Z,3.10
2023-04-20T00:38:16.693Z,2.10
2023-04-20T00:40:48.739Z,3.03
2023-04-20T00:43:16.641Z,2.10
2023-04-20T00:45:44.722Z,2.93
2023-04-20T00:48:13.121Z,2.53
2023-04-20T00:50:41.719Z,5.00
2023-04-20T00:53:11.771Z,3.87
2023-04-20T00:55:40.237Z,2.33
2023-04-20T00:58:08.130Z,5.17
2023-04-20T01:00:36.066Z,4.47
2023-04-20T01:03:04.138Z,3.53
2023-04-20T01:05:32.136Z,3.60
2023-04-20T01:07:59.965Z,4.17
2023-04-20T01:10:29.087Z,2.43
2023-04-20T01:12:56.929Z,3.83
2023-04-20T01:15:24.883Z,3.70
2023-04-20T01:17:53.556Z,5.60
2023-04-20T01:20:23.722Z,4.00
2023-04-20T01:22:54.561Z,3.23
2023-04-20T01:25:23.330Z,2.37
2023-04-20T01:27:51.226Z,2.37
2023-04-20T01:30:19.077Z,2.57
2023-04-20T01:32:47.094Z,3.77
2023-04-20T01:35:15.813Z,1.83
2023-04-20T01:37:43.716Z,3.80
2023-04-20T01:40:15.458Z,2.53
2023-04-20T01:42:43.419Z,2.63
2023-04-20T01:45:12.143Z,2.90
2023-04-20T01:47:39.999Z,4.30
2023-04-20T01:50:08.501Z,2.37
2023-04-20T01:52:36.324Z,2.63
2023-04-20T01:55:04.302Z,2.87
2023-04-20T01:57:33.522Z,3.17
2023-04-20T02:00:01.403Z,3.50
2023-04-20T02:02:29.334Z,2.70
2023-04-20T02:04:57.232Z,7.00
2023-04-20T02:07:25.416Z,2.13
2023-04-20T02:09:53.257Z,2.63
2023-04-20T02:12:21.151Z,3.37
2023-04-20T02:14:50.811Z,3.00
2023-04-20T02:17:19.690Z,2.10
2023-04-20T02:19:47.924Z,2.63
2023-04-20T02:22:16.155Z,3.33
2023-04-20T02:24:44.470Z,8.20
2023-04-20T02:27:12.620Z,5.13
2023-04-20T02:29:40.481Z,7.50
2023-04-20T02:32:09.842Z,2.90
2023-04-20T02:34:37.717Z,2.30
2023-04-20T02:37:05.506Z,2.27
2023-04-20T02:39:33.279Z,3.33
2023-04-20T02:42:01.612Z,4.67
2023-04-20T02:44:29.430Z,3.83
2023-04-20T02:46:57.283Z,2.40
2023-04-20T02:49:26.425Z,3.13
2023-04-20T02:51:54.244Z,3.23
2023-04-20T02:54:22.033Z,5.63
2023-04-20T02:56:50.309Z,4.00
2023-04-20T02:59:18.359Z,3.37
2023-04-20T03:01:47.013Z,5.53
2023-04-20T03:04:15.025Z,2.97
2023-04-20T03:06:45.113Z,4.63
2023-04-20T03:09:13.397Z,5.03
2023-04-20T03:11:41.641Z,2.57
2023-04-20T03:14:09.460Z,3.43
2023-04-20T03:16:37.334Z,3.13
2023-04-20T03:19:05.235Z,4.53
2023-04-20T03:21:33.246Z,4.87
2023-04-20T03:24:02.590Z,3.13
2023-04-20T03:26:30.399Z,3.00
2023-04-20T03:28:58.333Z,3.73
2023-04-20T03:31:26.455Z,5.17
2023-04-20T03:33:54.410Z,2.70
2023-04-20T03:36:22.218Z,4.33
2023-04-20T03:38:52.847Z,4.00
2023-04-20T03:41:22.173Z,6.43
2023-04-20T03:43:50.682Z,2.40
2023-04-20T03:46:18.737Z,2.13
2023-04-20T03:48:46.624Z,7.73
2023-04-20T03:51:14.741Z,2.83
2023-04-20T03:53:42.549Z,1.97
2023-04-20T03:56:10.497Z,3.07
2023-04-20T03:58:39.635Z,3.33
2023-04-20T04:01:08.568Z,2.73
2023-04-20T04:03:37.409Z,2.93
2023-04-20T04:06:05.953Z,3.47
2023-04-20T04:08:33.821Z,4.70
2023-04-20T04:11:01.743Z,3.97
2023-04-20T04:13:29.650Z,4.07
2023-04-20T04:15:58.839Z,3.23
2023-04-20T04:18:29.665Z,2.33
2023-04-20T04:20:57.649Z,2.57
2023-04-20T04:23:26.260Z,4.50
2023-04-20T04:25:54.086Z,3.23
2023-04-20T04:28:21.871Z,4.67
2023-04-20T04:30:50.408Z,3.23
2023-04-20T04:33:20.201Z,5.27
2023-04-20T04:35:48.642Z,4.13
2023-04-20T04:38:16.827Z,2.20
2023-04-20T04:40:45.725Z,4.43
2023-04-20T04:43:13.637Z,2.80
2023-04-20T04:45:42.268Z,1.93
2023-04-20T04:48:12.151Z,2.37
2023-04-20T04:50:41.585Z,4.80
2023-04-20T04:53:09.482Z,2.60
2023-04-20T04:55:37.341Z,3.03
2023-04-20T04:58:05.370Z,3.10
2023-04-20T05:00:33.379Z,5.27
2023-04-20T05:03:01.370Z,4.03
2023-04-20T05:05:29.278Z,3.67
2023-04-20T05:07:58.560Z,2.80
2023-04-20T05:10:26.370Z,2.20
2023-04-20T05:12:54.240Z,2.00
2023-04-20T05:15:22.382Z,2.70
2023-04-20T05:17:50.991Z,5.17
2023-04-20T05:20:19.177Z,4.83
2023-04-20T05:22:47.254Z,7.23
2023-04-20T05:25:16.650Z,2.63
2023-04-20T05:27:44.577Z,3.43
2023-04-20T05:30:21.339Z,2.80
2023-04-20T05:32:52.271Z,4.53
2023-04-20T05:35:21.152Z,4.17
2023-04-20T05:37:49.488Z,3.07
2023-04-20T05:40:18.703Z,3.90
2023-04-20T05:42:46.569Z,2.03
2023-04-20T05:45:14.546Z,3.53
2023-04-20T05:47:42.566Z,4.57
2023-04-20T05:50:11.617Z,3.17
2023-04-20T05:52:39.414Z,2.70
2023-04-20T05:55:07.913Z,2.70
2023-04-20T05:57:42.557Z,2.93
2023-04-20T06:00:12.469Z,1.70
2023-04-20T06:02:41.257Z,2.10
2023-04-20T06:05:10.861Z,3.97
2023-04-20T06:07:39.469Z,3.97
2023-04-20T06:10:08.536Z,6.73
2023-04-20T06:12:38.122Z,2.90
2023-04-20T06:15:08.423Z,2.10
2023-04-20T06:17:37.450Z,3.60
2023-04-20T06:20:06.779Z,3.90
2023-04-20T06:22:34.850Z,4.10
2023-04-20T06:25:02.935Z,2.57
2023-04-20T06:27:31.001Z,4.77
2023-04-20T06:30:00.237Z,3.53
2023-04-20T06:32:28.504Z,4.00
2023-04-20T06:34:56.542Z,5.40
2023-04-20T06:37:24.366Z,2.27
2023-04-20T06:39:54.895Z,2.37
2023-04-20T06:42:23.172Z,2.10
2023-04-20T06:44:51.136Z,6.53
2023-04-20T06:47:20.739Z,6.33
2023-04-20T06:49:48.674Z,4.40
2023-04-20T06:52:16.603Z,2.43
2023-04-20T06:54:44.618Z,3.70
2023-04-20T06:57:12.651Z,4.83
2023-04-20T06:59:40.454Z,3.23
2023-04-20T07:02:08.727Z,6.90
2023-04-20T07:04:38.077Z,8.33
2023-04-20T07:07:05.976Z,6.73
2023-04-20T07:09:34.173Z,4.03
2023-04-20T07:12:02.549Z,4.23
2023-04-20T07:14:30.575Z,3.60
2023-04-20T07:16:58.507Z,5.17
2023-04-20T07:19:26.358Z,3.87
2023-04-20T07:21:55.548Z,5.83
2023-04-20T07:24:23.400Z,2.90
2023-04-20T07:26:51.391Z,3.10
2023-04-20T07:29:19.537Z,2.87
2023-04-20T07:31:47.932Z,3.90
2023-04-20T07:34:15.920Z,4.67
2023-04-20T07:36:44.099Z,6.20
2023-04-20T07:39:13.658Z,5.53
2023-04-20T07:41:41.426Z,2.67
2023-04-20T07:44:09.296Z,2.80
2023-04-20T07:46:37.298Z,4.00
2023-04-20T07:49:05.118Z,2.70
2023-04-20T07:51:34.319Z,3.33
2023-04-20T07:54:02.145Z,2.73
2023-04-20T07:56:32.149Z,3.03
2023-04-20T07:58:59.994Z,2.70
2023-04-20T08:01:27.838Z,4.87
2023-04-20T08:03:56.267Z,2.70
2023-04-20T08:06:24.223Z,4.17
2023-04-20T08:08:53.032Z,2.83
2023-04-20T08:11:21.617Z,3.17
2023-04-20T08:13:51.124Z,2.90
2023-04-20T08:16:19.345Z,2.87
2023-04-20T08:18:47.758Z,4.13
2023-04-20T08:21:15.698Z,2.87
2023-04-20T08:23:43.862Z,2.90
2023-04-20T08:26:16.828Z,2.43
2023-04-20T08:28:45.285Z,4.30
2023-04-20T08:31:14.900Z,2.77
2023-04-20T08:33:42.995Z,2.93
2023-04-20T08:36:11.640Z,5.07
2023-04-20T08:38:39.570Z,3.63
2023-04-20T08:41:07.678Z,3.30
2023-04-20T08:43:35.639Z,2.70
2023-04-20T08:46:03.686Z,2.90
2023-04-20T08:48:36.456Z,5.90
2023-04-20T08:51:04.617Z,4.23
2023-04-20T08:53:32.847Z,3.13
2023-04-20T08:56:00.804Z,6.27
2023-04-20T08:58:31.905Z,6.17
2023-04-20T09:01:00.672Z,3.47
2023-04-20T09:03:37.560Z,5.03
2023-04-20T09:06:06.796Z,4.17
2023-04-20T09:08:39.281Z,3.57
2023-04-20T09:11:07.542Z,3.37
2023-04-20T09:13:35.361Z,4.80
2023-04-20T09:16:13.624Z,3.60
2023-04-20T09:18:53.431Z,3.43
2023-04-20T09:21:21.905Z,3.37
2023-04-20T09:23:58.252Z,4.10
2023-04-20T09:26:26.135Z,3.63
2023-04-20T09:28:54.036Z,3.43
2023-04-20T09:31:23.160Z,3.37
2023-04-20T09:33:59.566Z,6.47
2023-04-20T09:36:37.230Z,5.10
2023-04-20T09:39:09.161Z,4.55
2023-04-20T09:41:38.053Z,4.67
2023-04-20T09:44:06.753Z,3.60
2023-04-20T09:46:36.261Z,4.95
2023-04-20T09:49:06.541Z,5.97
2023-04-20T09:51:36.634Z,3.60
2023-04-20T09:54:05.696Z,4.30
2023-04-20T09:56:35.808Z,4.80
2023-04-20T09:59:04.095Z,4.88
2023-04-20T10:01:34.592Z,3.70
2023-04-20T10:04:08.246Z,3.55
2023-04-20T10:06:37.305Z,4.07
2023-04-20T10:09:07.781Z,3.95
2023-04-20T10:11:51.592Z,3.83
2023-04-20T10:14:23.161Z,3.45
2023-04-20T10:17:01.256Z,3.17
2023-04-20T10:19:40.383Z,4.05
2023-04-20T10:22:09.341Z,4.97
2023-04-20T10:24:39.016Z,5.40
2023-04-20T10:27:18.126Z,3.90
2023-04-20T10:29:46.144Z,4.38
2023-04-20T10:32:23.827Z,5.22
2023-04-20T10:35:03.754Z,3.97
2023-04-20T10:37:32.337Z,4.17
2023-04-20T10:40:00.775Z,4.72
2023-04-20T10:42:29.651Z,3.47
2023-04-20T10:44:57.888Z,4.25
2023-04-20T10:47:29.912Z,5.97
2023-04-20T10:50:09.263Z,3.83
2023-04-20T10:52:38.232Z,4.18
2023-04-20T10:55:08.345Z,3.10
2023-04-20T10:57:37.437Z,3.63
2023-04-20T11:00:16.693Z,3.80
2023-04-20T11:02:50.449Z,4.57
2023-04-20T11:05:21.174Z,3.80
2023-04-20T11:07:53.068Z,5.03
2023-04-20T11:10:21.990Z,4.47
2023-04-20T11:12:51.068Z,4.00
2023-04-20T11:15:19.028Z,3.20
2023-04-20T11:17:47.297Z,3.53
2023-04-20T11:20:17.706Z,3.20
2023-04-20T11:22:58.629Z,5.55
2023-04-20T11:25:27.924Z,3.58
2023-04-20T11:28:06.434Z,2.40
2023-04-20T11:30:39.943Z,3.83
2023-04-20T11:33:08.183Z,5.65
2023-04-20T11:35:38.071Z,3.67
2023-04-20T11:38:07.366Z,3.72
2023-04-20T11:40:35.483Z,3.13
2023-04-20T11:43:04.752Z,5.03
2023-04-20T11:45:36.261Z,3.80
2023-04-20T11:48:05.559Z,5.55
2023-04-20T11:50:33.462Z,4.97
2023-04-20T11:53:01.284Z,3.30
2023-04-20T11:55:30.446Z,3.95
2023-04-20T11:57:59.552Z,4.68
2023-04-20T12:00:27.518Z,3.90
2023-04-20T12:02:55.635Z,3.03
2023-04-20T12:05:23.830Z,3.25
2023-04-20T12:07:51.906Z,3.15
2023-04-20T12:10:19.782Z,4.13
2023-04-20T12:12:49.259Z,4.93
2023-04-20T12:15:17.164Z,4.40
2023-04-20T12:17:45.470Z,2.97
2023-04-20T12:20:14.403Z,2.93
2023-04-20T12:22:42.237Z,4.22
2023-04-20T12:25:10.536Z,7.30
2023-04-20T12:27:38.665Z,3.92
2023-04-20T12:30:09.913Z,4.00
2023-04-20T12:32:37.813Z,4.07
2023-04-20T12:35:06.212Z,3.63
2023-04-20T12:37:34.082Z,4.13
2023-04-20T12:40:01.960Z,3.63
2023-04-20T12:42:29.801Z,4.47
2023-04-20T12:44:57.624Z,4.75
2023-04-20T12:47:26.806Z,4.23
2023-04-20T12:49:54.967Z,3.97
2023-04-20T12:52:22.947Z,3.63
2023-04-20T12:54:52.197Z,5.30
2023-04-20T12:57:20.203Z,10.15
2023-04-20T12:59:48.740Z,6.93
2023-04-20T13:02:16.703Z,4.50
2023-04-20T13:04:46.752Z,3.78
2023-04-20T13:07:15.366Z,4.38
2023-04-20T13:09:43.217Z,4.05
2023-04-20T13:12:11.577Z,3.50
2023-04-20T13:14:39.412Z,3.40
2023-04-20T13:17:07.529Z,3.67
2023-04-20T13:19:35.507Z,3.60
2023-04-20T13:22:04.868Z,4.05
2023-04-20T13:24:32.878Z,4.30
2023-04-20T13:27:01.144Z,4.15
2023-04-20T13:29:29.022Z,4.22
2023-04-20T13:31:56.974Z,4.32
2023-04-20T13:34:24.835Z,3.93
2023-04-20T13:36:52.774Z,3.72
2023-04-20T13:39:22.023Z,3.78
2023-04-20T13:41:50.705Z,5.30
2023-04-20T13:44:19.006Z,3.90
2023-04-20T13:46:48.688Z,5.55
2023-04-20T13:49:17.286Z,4.18
2023-04-20T13:51:45.688Z,4.05
2023-04-20T13:54:14.053Z,3.97
2023-04-20T13:56:43.163Z,4.88
2023-04-20T13:59:11.557Z,5.40
2023-04-20T14:01:39.954Z,4.72
2023-04-20T14:04:09.610Z,5.90
2023-04-20T14:06:37.678Z,6.47
2023-04-20T14:09:05.766Z,4.03
2023-04-20T14:11:33.583Z,5.05
2023-04-20T14:14:02.823Z,4.53
2023-04-20T14:16:32.207Z,8.40
2023-04-20T14:19:00.144Z,7.07
2023-04-20T14:21:28.084Z,5.13
2023-04-20T14:23:56.256Z,4.95
2023-04-20T14:26:24.244Z,4.03
2023-04-20T14:28:53.152Z,4.82
2023-04-20T14:31:22.464Z,4.80
2023-04-20T14:33:50.878Z,5.05
2023-04-20T14:36:19.162Z,4.68
2023-04-20T14:38:46.967Z,4.38
2023-04-20T14:41:16.097Z,4.95
2023-04-20T14:43:43.988Z,5.70
2023-04-20T14:46:11.894Z,4.97
2023-04-20T14:48:41.160Z,4.63
2023-04-20T14:51:09.027Z,5.57
2023-04-20T14:53:36.831Z,7.45
2023-04-20T14:56:04.825Z,5.47
2023-04-20T14:58:32.726Z,4.82
2023-04-20T15:01:00.633Z,4.60
2023-04-20T15:03:28.939Z,5.47
2023-04-20T15:06:01.939Z,4.35
2023-04-20T15:08:30.356Z,4.63
2023-04-20T15:10:58.284Z,4.80
2023-04-20T15:13:26.926Z,4.75
2023-04-20T15:15:55.473Z,4.38
2023-04-20T15:18:23.564Z,5.43
2023-04-20T15:20:52.573Z,5.32
2023-04-20T15:23:21.831Z,5.20
2023-04-20T15:25:50.926Z,5.15
2023-04-20T15:28:19.140Z,4.65
2023-04-20T15:30:47.338Z,4.43
2023-04-20T15:33:15.536Z,4.75
2023-04-20T15:35:43.928Z,5.07
2023-04-20T15:38:11.912Z,4.47
2023-04-20T15:40:41.472Z,6.95
2023-04-20T15:43:09.412Z,5.30
2023-04-20T15:45:37.269Z,4.97
2023-04-20T15:48:06.161Z,4.68
2023-04-20T15:50:34.372Z,4.75
2023-04-20T15:53:02.287Z,4.60
2023-04-20T15:55:34.238Z,4.55
2023-04-20T15:58:03.581Z,4.15
2023-04-20T16:00:31.459Z,4.95
2023-04-20T16:03:01.398Z,4.47
2023-04-20T16:05:32.794Z,6.03
2023-04-20T16:08:00.708Z,5.10
2023-04-20T16:10:28.657Z,6.43
2023-04-20T16:12:56.861Z,5.07
2023-04-20T16:15:26.225Z,4.32
2023-04-20T16:17:54.865Z,4.45
2023-04-20T16:20:22.964Z,4.25
2023-04-20T16:22:51.351Z,5.00
2023-04-20T16:25:23.678Z,4.65
2023-04-20T16:27:52.453Z,4.75
2023-04-20T16:30:20.373Z,4.03
2023-04-20T16:32:50.280Z,4.13
2023-04-20T16:35:18.314Z,4.32
2023-04-20T16:37:46.776Z,5.20
2023-04-20T16:40:15.205Z,4.65
2023-04-20T16:42:43.254Z,4.97
2023-04-20T16:45:11.809Z,4.63
2023-04-20T16:47:39.958Z,4.78
2023-04-20T16:50:10.737Z,4.50
2023-04-20T16:52:38.784Z,4.97
2023-04-20T16:55:07.935Z,5.78
2023-04-20T16:57:35.861Z,8.15
2023-04-20T17:00:05.972Z,5.13
2023-04-20T17:02:35.656Z,5.15
2023-04-20T17:05:04.186Z,6.30
2023-04-20T17:07:33.573Z,5.45
2023-04-20T17:10:01.450Z,5.30
2023-04-20T17:12:30.116Z,6.57
2023-04-20T17:14:57.973Z,5.82
2023-04-20T17:17:26.147Z,5.53
2023-04-20T17:19:54.032Z,6.38
2023-04-20T17:22:21.865Z,5.13
2023-04-20T17:24:51.151Z,10.05
2023-04-20T17:27:19.829Z,5.70
2023-04-20T17:29:47.769Z,6.07
2023-04-20T17:32:15.950Z,5.15
2023-04-20T17:34:48.637Z,6.35
2023-04-20T17:37:16.759Z,6.47
2023-04-20T17:39:45.124Z,8.10
2023-04-20T17:42:14.557Z,7.07
2023-04-20T17:44:42.320Z,5.22
2023-04-20T17:47:10.646Z,5.55
2023-04-20T17:49:41.165Z,5.07
2023-04-20T17:52:09.276Z,5.78
2023-04-20T17:54:37.160Z,5.97
2023-04-20T17:57:06.422Z,5.07
2023-04-20T17:59:35.821Z,5.18
2023-04-20T18:02:03.928Z,4.88
2023-04-20T18:04:32.003Z,5.40
2023-04-20T18:06:59.935Z,4.97
2023-04-20T18:09:27.861Z,5.22
2023-04-20T18:11:55.663Z,5.30
2023-04-20T18:14:23.880Z,4.70
2023-04-20T18:16:55.060Z,6.88
2023-04-20T18:19:22.900Z,5.70
2023-04-20T18:21:51.287Z,5.13
2023-04-20T18:24:19.541Z,6.35
2023-04-20T18:26:47.635Z,4.72
2023-04-20T18:29:15.906Z,5.80
2023-04-20T18:31:45.342Z,5.13
2023-04-20T18:34:16.202Z,7.70
2023-04-20T18:36:44.134Z,4.68
2023-04-20T18:39:12.013Z,4.90
2023-04-20T18:41:39.832Z,4.90
2023-04-20T18:44:08.953Z,4.43
2023-04-20T18:46:36.858Z,6.20
2023-04-20T18:49:04.729Z,6.03
2023-04-20T18:51:34.517Z,5.00
2023-04-20T18:54:02.800Z,5.18
2023-04-20T18:56:30.907Z,8.02
2023-04-20T18:58:59.417Z,4.85
2023-04-20T19:01:27.445Z,5.80
2023-04-20T19:03:55.877Z,5.25
2023-04-20T19:06:23.795Z,5.23
2023-04-20T19:08:52.985Z,4.63
2023-04-20T19:11:20.834Z,6.17
2023-04-20T19:13:48.819Z,6.40
2023-04-20T19:16:16.700Z,5.82
2023-04-20T19:18:46.660Z,8.25
2023-04-20T19:21:14.616Z,6.93
2023-04-20T19:23:42.405Z,5.50
2023-04-20T19:26:11.680Z,6.32
2023-04-20T19:28:39.611Z,6.33
2023-04-20T19:31:09.279Z,7.03
2023-04-20T19:33:37.384Z,5.20
2023-04-20T19:36:06.306Z,5.20
2023-04-20T19:38:37.286Z,6.57
2023-04-20T19:41:05.702Z,5.30
2023-04-20T19:43:36.148Z,5.40
2023-04-20T19:46:04.193Z,5.13
2023-04-20T19:48:32.008Z,5.17
2023-04-20T19:51:00.894Z,5.40
2023-04-20T19:53:28.678Z,5.72
2023-04-20T19:55:56.545Z,7.13
2023-04-20T19:58:24.546Z,5.67
2023-04-20T20:00:53.832Z,6.00
2023-04-20T20:03:21.846Z,5.87
2023-04-20T20:05:50.280Z,5.27
2023-04-20T20:08:18.309Z,6.07
2023-04-20T20:10:46.195Z,6.00
2023-04-20T20:13:14.441Z,5.17
2023-04-20T20:15:42.598Z,5.70
2023-04-20T20:18:12.319Z,5.70
2023-04-20T20:20:40.332Z,5.00
2023-04-20T20:23:08.386Z,5.80
2023-04-20T20:25:36.246Z,5.87
2023-04-20T20:28:04.181Z,5.87
2023-04-20T20:30:32.078Z,8.43
2023-04-20T20:32:59.986Z,5.70
2023-04-20T20:35:31.635Z,6.20
2023-04-20T20:37:59.666Z,7.13
2023-04-20T20:40:27.541Z,5.90
2023-04-20T20:42:55.429Z,6.83
2023-04-20T20:45:23.517Z,6.17
2023-04-20T20:47:51.531Z,6.80
2023-04-20T20:50:19.927Z,5.47
2023-04-20T20:52:49.755Z,5.80
2023-04-20T20:55:17.724Z,6.93
2023-04-20T20:57:45.904Z,6.53
2023-04-20T21:00:16.042Z,5.63
2023-04-20T21:02:44.063Z,6.10
2023-04-20T21:05:12.449Z,5.90
2023-04-20T21:07:40.652Z,5.70
2023-04-20T21:10:11.705Z,6.90
2023-04-20T21:12:39.627Z,6.37
2023-04-20T21:15:10.018Z,7.97
2023-04-20T21:17:37.875Z,7.07
2023-04-20T21:20:07.098Z,6.90
2023-04-20T21:22:34.889Z,7.33
2023-04-20T21:25:03.748Z,8.43
2023-04-20T21:27:33.275Z,7.93
2023-04-20T21:30:01.071Z,8.00
2023-04-20T21:32:28.827Z,7.80
2023-04-20T21:34:56.761Z,7.27
2023-04-20T21:37:30.191Z,7.30
2023-04-20T21:39:58.074Z,7.57
2023-04-20T21:42:25.925Z,7.50
2023-04-20T21:44:55.077Z,7.03
2023-04-20T21:47:23.205Z,7.57
2023-04-20T21:49:51.202Z,7.83
2023-04-20T21:52:19.217Z,7.37
2023-04-20T21:54:47.013Z,8.37
2023-04-20T21:57:15.218Z,8.63
2023-04-20T21:59:43.439Z,7.47
2023-04-20T22:02:12.813Z,8.13
2023-04-20T22:04:41.214Z,9.00
2023-04-20T22:07:09.766Z,8.50
2023-04-20T22:09:37.778Z,8.23
2023-04-20T22:12:05.739Z,7.80
2023-04-20T22:14:33.549Z,9.60
2023-04-20T22:17:01.797Z,8.93
2023-04-20T22:19:30.969Z,8.00
2023-04-20T22:21:58.808Z,8.10
2023-04-20T22:24:26.618Z,7.40
2023-04-20T22:26:54.374Z,8.73
2023-04-20T22:29:22.133Z,9.33
2023-04-20T22:31:50.632Z,8.83
2023-04-20T22:34:18.608Z,9.03
2023-04-20T22:36:47.850Z,8.47
2023-04-20T22:39:15.794Z,9.60
2023-04-20T22:41:43.680Z,9.90
2023-04-20T22:44:11.690Z,10.93
2023-04-20T22:46:39.496Z,9.63
2023-04-20T22:49:08.714Z,8.50
2023-04-20T22:51:36.546Z,10.13
2023-04-20T22:54:06.213Z,8.93
2023-04-20T22:56:35.047Z,9.37
2023-04-20T22:59:02.929Z,9.17
2023-04-20T23:01:30.881Z,9.50
2023-04-20T23:03:59.064Z,8.53
2023-04-20T23:06:29.588Z,9.93
2023-04-20T23:08:59.852Z,8.63
2023-04-20T23:11:29.851Z,8.83
2023-04-20T23:13:57.678Z,8.50
2023-04-20T23:16:28.041Z,9.40
2023-04-20T23:18:55.985Z,10.00
2023-04-20T23:21:23.804Z,10.30
2023-04-20T23:23:52.826Z,9.03
2023-04-20T23:26:20.892Z,11.60
2023-04-20T23:28:52.041Z,10.10
2023-04-20T23:31:20.164Z,10.87
2023-04-20T23:33:48.771Z,9.50
2023-04-20T23:36:16.683Z,11.37
2023-04-20T23:38:44.806Z,12.57
2023-04-20T23:41:14.095Z,11.47
2023-04-20T23:43:42.531Z,10.73
2023-04-20T23:46:12.599Z,12.03
2023-04-20T23:48:40.532Z,10.43
2023-04-20T23:51:08.367Z,10.50
2023-04-20T23:53:37.140Z,10.97
2023-04-20T23:56:05.529Z,11.13
2023-04-20T23:58:33.755Z,11.50
